Time;durP1;ratioP1;P1;durP2;ratioP2;P2;SDS_P1;SDS_P2;PMS_P1;PMS_P2;Temp;Humidity;BMP_temperature;BMP_pressure;BME280_temperature;BME280_humidity;BME280_pressure;Samples;Min_cycle;Max_cycle;Signal;HPM_P1;HPM_P2
2021/09/14 00:00:58;;;;;;;;;;;;;;;;;;4996380;28;19921;-91
2021/09/14 00:03:23;;;;;;;;;;;;;;;;;;5013997;28;19922;-91
2021/09/14 00:05:49;;;;;;;;;;;;;;;;;;5013557;28;19917;-91
2021/09/14 00:08:14;;;;;;;;;;;;;;;;;;5013678;28;20013;-91
2021/09/14 00:10:40;;;;;;;;;;;;;;;;;;4996237;28;19917;-91
2021/09/14 00:13:07;;;;;;;;;;;;;;;;;;5013859;28;19925;-89
2021/09/14 00:15:32;;;;;;;;;;;;;;;;;;5013886;28;19971;-89
2021/09/14 00:17:58;;;;;;;;;;;;;;;;;;5014042;28;19964;-90
2021/09/14 00:20:23;;;;;;;;;;;;;;;;;;5013603;28;19918;-90
2021/09/14 00:22:49;;;;;;;;;;;;;;;;;;5013728;28;19917;-90
2021/09/14 00:25:14;;;;;;;;;;;;;;;;;;5013727;28;19917;-90
2021/09/14 00:27:40;;;;;;;;;;;;;;;;;;4996335;28;19917;-91
2021/09/14 00:30:05;;;;;;;;;;;;;;;;;;5013987;28;19917;-90
2021/09/14 00:32:30;;;;;;;;;;;;;;;;;;5010338;28;19933;-90
2021/09/14 00:34:56;;;;;;;;;;;;;;;;;;4992569;28;19921;-89
2021/09/14 00:37:21;;;;;;;;;;;;;;;;;;5000965;28;20000;-90
2021/09/14 00:39:47;;;;;;;;;;;;;;;;;;5013583;28;19967;-90
2021/09/14 00:42:12;;;;;;;;;;;;;;;;;;5013504;28;19964;-90
2021/09/14 00:44:38;;;;;;;;;;;;;;;;;;5013469;28;19917;-90
2021/09/14 00:47:04;;;;;;;;;;;;;;;;;;5013471;28;19918;-90
2021/09/14 00:49:30;;;;;;;;;;;;;;;;;;5013802;28;19917;-91
2021/09/14 00:51:55;;;;;;;;;;;;;;;;;;5013622;28;20389;-90
2021/09/14 00:54:21;;;;;;;;;;;;;;;;;;5013346;28;19971;-91
2021/09/14 00:56:46;;;;;;;;;;;;;;;;;;5012748;28;20348;-89
2021/09/14 00:59:12;;;;;;;;;;;;;;;;;;5013648;28;20301;-90
2021/09/14 01:01:37;;;;;;;;;;;;;;;;;;5013220;28;20373;-91
2021/09/14 01:04:03;;;;;;;;;;;;;;;;;;5013424;28;19921;-91
2021/09/14 01:06:29;;;;;;;;;;;;;;;;;;4995579;28;20337;-90
2021/09/14 01:08:55;;;;;;;;;;;;;;;;;;5013652;28;20381;-90
2021/09/14 01:11:21;;;;;;;;;;;;;;;;;;5015192;28;19978;-90
2021/09/14 01:13:46;;;;;;;;;;;;;;;;;;5014188;28;19922;-89
2021/09/14 01:16:12;;;;;;;;;;;;;;;;;;5005357;28;19921;-90
2021/09/14 01:18:38;;;;;;;;;;;;;;;;;;4996211;28;19944;-89
2021/09/14 01:21:03;;;;;;;;;;;;;;;;;;4997831;28;19917;-90
2021/09/14 01:23:28;;;;;;;;;;;;;;;;;;5017678;28;19917;-90
2021/09/14 01:25:54;;;;;;;;;;;;;;;;;;5017090;28;19968;-89
2021/09/14 01:28:19;;;;;;;;;;;;;;;;;;5017151;28;19925;-90
2021/09/14 01:30:46;;;;;;;;;;;;;;;;;;5017119;28;19926;-90
2021/09/14 01:33:12;;;;;;;;;;;;;;;;;;5017060;28;19917;-90
2021/09/14 01:35:37;;;;;;;;;;;;;;;;;;5016431;28;19928;-90
2021/09/14 01:38:03;;;;;;;;;;;;;;;;;;5016834;28;19995;-91
2021/09/14 01:40:28;;;;;;;;;;;;;;;;;;5016385;28;19917;-90
2021/09/14 01:42:54;;;;;;;;;;;;;;;;;;5016754;28;19918;-88
2021/09/14 01:45:20;;;;;;;;;;;;;;;;;;5016454;28;20431;-91
2021/09/14 01:47:45;;;;;;;;;;;;;;;;;;5016693;28;19982;-90
2021/09/14 01:50:12;;;;;;;;;;;;;;;;;;4999242;28;19980;-90
2021/09/14 01:52:37;;;;;;;;;;;;;;;;;;5016573;28;19957;-90
2021/09/14 01:55:04;;;;;;;;;;;;;;;;;;4987852;28;20338;-89
2021/09/14 01:57:32;;;;;;;;;;;;;;;;;;4992415;28;19918;-90
2021/09/14 01:59:59;;;;;;;;;;;;;;;;;;4985245;28;19925;-91
2021/09/14 02:07:38;;;;;;;;;;;;;;;;;;5016003;28;19914;-91
2021/09/14 02:40:03;;;;;;;;;;;;;;;;;;4993395;28;20080;-91
2021/09/14 02:58:39;;;;;;;;;;;;;;;;;;5015692;28;19963;-90
2021/09/14 03:01:06;;;;;;;;;;;;;;;;;;5013798;28;19921;-91
2021/09/14 03:03:32;;;;;;;;;;;;;;;;;;4997611;28;20057;-91
2021/09/14 03:05:57;;;;;;;;;;;;;;;;;;5015033;28;20012;-90
2021/09/14 03:08:23;;;;;;;;;;;;;;;;;;5015065;28;19921;-91
2021/09/14 03:10:48;;;;;;;;;;;;;;;;;;5015141;28;19924;-90
2021/09/14 03:13:14;;;;;;;;;;;;;;;;;;5015110;28;20328;-90
2021/09/14 03:15:39;;;;;;;;;;;;;;;;;;5014528;28;19959;-91
2021/09/14 03:18:04;;;;;;;;;;;;;;;;;;5015070;28;19969;-90
2021/09/14 03:20:30;;;;;;;;;;;;;;;;;;4993884;28;20048;-87
2021/09/14 03:22:55;;;;;;;;;;;;;;;;;;4971012;28;19972;-89
2021/09/14 03:25:21;;;;;;;;;;;;;;;;;;5013437;28;19918;-89
2021/09/14 03:27:47;;;;;;;;;;;;;;;;;;5015032;28;19971;-90
2021/09/14 03:30:13;;;;;;;;;;;;;;;;;;4997358;28;19927;-90
2021/09/14 03:32:38;;;;;;;;;;;;;;;;;;4996895;28;20008;-89
2021/09/14 03:35:04;;;;;;;;;;;;;;;;;;5014199;28;19956;-89
2021/09/14 03:37:29;;;;;;;;;;;;;;;;;;5014572;28;19917;-90
2021/09/14 03:39:55;;;;;;;;;;;;;;;;;;4998295;28;19949;-90
2021/09/14 03:42:20;;;;;;;;;;;;;;;;;;5013161;28;20354;-89
2021/09/14 03:44:46;;;;;;;;;;;;;;;;;;5014319;28;19930;-90
2021/09/14 03:47:11;;;;;;;;;;;;;;;;;;5014362;28;20000;-90
2021/09/14 03:49:37;;;;;;;;;;;;;;;;;;5014584;28;19917;-91
2021/09/14 03:52:02;;;;;;;;;;;;;;;;;;5014625;28;19921;-90
2021/09/14 03:54:28;;;;;;;;;;;;;;;;;;5014271;28;20361;-90
2021/09/14 03:56:53;;;;;;;;;;;;;;;;;;5014332;28;20277;-90
2021/09/14 03:59:19;;;;;;;;;;;;;;;;;;4989597;28;19952;-89
2021/09/14 04:01:50;;;;;;;;;;;;;;;;;;5003004;28;19956;-88
2021/09/14 04:04:21;;;;;;;;;;;;;;;;;;5014213;28;20443;-91
2021/09/14 04:07:02;;;;;;;;;;;;;;;;;;4996286;28;19921;-90
2021/09/14 04:09:27;;;;;;;;;;;;;;;;;;5014128;28;20016;-90
2021/09/14 04:11:53;;;;;;;;;;;;;;;;;;4996519;28;19973;-89
2021/09/14 04:14:18;;;;;;;;;;;;;;;;;;4996186;28;19917;-90
2021/09/14 04:16:43;;;;;;;;;;;;;;;;;;5013935;28;19940;-90
2021/09/14 04:19:09;;;;;;;;;;;;;;;;;;4996169;28;19918;-90
2021/09/14 04:21:34;;;;;;;;;;;;;;;;;;4996237;28;20289;-88
2021/09/14 04:24:00;;;;;;;;;;;;;;;;;;4996295;28;19917;-88
2021/09/14 04:26:25;;;;;;;;;;;;;;;;;;4996110;28;19987;-91
2021/09/14 04:28:51;;;;;;;;;;;;;;;;;;5013940;28;20431;-91
2021/09/14 04:31:16;;;;;;;;;;;;;;;;;;4996179;28;19971;-90
2021/09/14 04:33:42;;;;;;;;;;;;;;;;;;4996312;28;19928;-90
2021/09/14 04:36:07;;;;;;;;;;;;;;;;;;5013301;28;19929;-89
2021/09/14 04:38:32;;;;;;;;;;;;;;;;;;4996031;28;20008;-89
2021/09/14 04:40:58;;;;;;;;;;;;;;;;;;5000487;28;19937;-89
2021/09/14 04:43:24;;;;;;;;;;;;;;;;;;4988700;28;20060;-89
2021/09/14 04:45:49;;;;;;;;;;;;;;;;;;5004908;28;19936;-91
2021/09/14 04:48:14;;;;;;;;;;;;;;;;;;5012854;28;19943;-87
2021/09/14 04:50:40;;;;;;;;;;;;;;;;;;4996372;28;19917;-89
2021/09/14 04:53:05;;;;;;;;;;;;;;;;;;4995883;28;19913;-88
2021/09/14 04:55:31;;;;;;;;;;;;;;;;;;5016827;28;19917;-88
2021/09/14 04:57:56;;;;;;;;;;;;;;;;;;4991656;28;20021;-90
2021/09/14 05:00:22;;;;;;;;;;;;;;;;;;4997993;28;20130;-88
2021/09/14 05:02:47;;;;;;;;;;;;;;;;;;4997381;28;19925;-89
2021/09/14 05:05:12;;;;;;;;;;;;;;;;;;4980185;28;19948;-89
2021/09/14 05:07:38;;;;;;;;;;;;;;;;;;4998383;28;19976;-88
2021/09/14 05:10:04;;;;;;;;;;;;;;;;;;4982093;28;19921;-88
2021/09/14 05:12:29;;;;;;;;;;;;;;;;;;4982005;28;20583;-88
2021/09/14 05:14:55;;;;;;;;;;;;;;;;;;4998500;28;19918;-90
2021/09/14 05:17:20;;;;;;;;;;;;;;;;;;4997950;28;19918;-89
2021/09/14 05:19:47;;;;;;;;;;;;;;;;;;4999264;28;19918;-91
2021/09/14 05:22:13;;;;;;;;;;;;;;;;;;4997254;28;19944;-91
2021/09/14 05:24:38;;;;;;;;;;;;;;;;;;4992499;28;19925;-90
2021/09/14 05:27:04;;;;;;;;;;;;;;;;;;5011912;28;19925;-91
2021/09/14 05:29:30;;;;;;;;;;;;;;;;;;4999459;28;20384;-92
2021/09/14 05:31:56;;;;;;;;;;;;;;;;;;5017079;28;19924;-91
2021/09/14 05:34:21;;;;;;;;;;;;;;;;;;4998883;28;19925;-91
2021/09/14 05:36:47;;;;;;;;;;;;;;;;;;5016971;28;19921;-92
2021/09/14 05:39:13;;;;;;;;;;;;;;;;;;5016877;28;19921;-90
2021/09/14 05:41:38;;;;;;;;;;;;;;;;;;5002127;28;19918;-89
2021/09/14 05:44:04;;;;;;;;;;;;;;;;;;4979108;28;20417;-90
2021/09/14 05:46:30;;;;;;;;;;;;;;;;;;4996779;28;19917;-89
2021/09/14 05:48:55;;;;;;;;;;;;;;;;;;4995887;28;19925;-90
2021/09/14 05:51:21;;;;;;;;;;;;;;;;;;4995683;28;19918;-92
2021/09/14 05:53:46;;;;;;;;;;;;;;;;;;4997090;28;20281;-92
2021/09/14 05:56:12;;;;;;;;;;;;;;;;;;4995478;28;20032;-89
2021/09/14 05:58:37;;;;;;;;;;;;;;;;;;4979112;28;19917;-91
2021/09/14 06:01:03;;;;;;;;;;;;;;;;;;4996197;28;19960;-91
2021/09/14 06:03:28;;;;;;;;;;;;;;;;;;4992962;28;19926;-91
2021/09/14 06:05:54;;;;;;;;;;;;;;;;;;5015286;28;19952;-91
2021/09/14 06:08:19;;;;;;;;;;;;;;;;;;4998720;28;20009;-87
2021/09/14 06:10:45;;;;;;;;;;;;;;;;;;5016466;28;19917;-89
2021/09/14 06:13:10;;;;;;;;;;;;;;;;;;5016146;28;19918;-89
2021/09/14 06:15:36;;;;;;;;;;;;;;;;;;5016106;28;20396;-92
2021/09/14 06:18:01;;;;;;;;;;;;;;;;;;4998544;28;19917;-89
2021/09/14 06:20:27;;;;;;;;;;;;;;;;;;4998716;28;19924;-88
2021/09/14 06:22:52;;;;;;;;;;;;;;;;;;5015911;28;20431;-90
2021/09/14 06:25:18;;;;;;;;;;;;;;;;;;4998299;28;20008;-89
2021/09/14 06:27:43;;;;;;;;;;;;;;;;;;5015509;28;19913;-87
2021/09/14 06:30:09;;;;;;;;;;;;;;;;;;4998332;28;20048;-88
2021/09/14 06:32:34;;;;;;;;;;;;;;;;;;5016503;28;19968;-88
2021/09/14 06:35:00;;;;;;;;;;;;;;;;;;4997932;28;19921;-88
2021/09/14 06:37:28;;;;;;;;;;;;;;;;;;5012355;28;19940;-89
2021/09/14 06:39:53;;;;;;;;;;;;;;;;;;4979502;28;20400;-88
2021/09/14 06:42:19;;;;;;;;;;;;;;;;;;5009903;28;20380;-87
2021/09/14 06:44:44;;;;;;;;;;;;;;;;;;5015526;28;20262;-87
2021/09/14 06:47:10;;;;;;;;;;;;;;;;;;5015170;28;19972;-84
2021/09/14 06:49:35;;;;;;;;;;;;;;;;;;5015368;28;19973;-87
2021/09/14 06:52:01;;;;;;;;;;;;;;;;;;5015598;28;19964;-85
2021/09/14 06:54:26;;;;;;;;;;;;;;;;;;5015519;28;20024;-85
2021/09/14 06:56:51;;;;;;;;;;;;;;;;;;4997356;28;19924;-87
2021/09/14 06:59:17;;;;;;;;;;;;;;;;;;5015410;28;19918;-90
2021/09/14 07:01:42;;;;;;;;;;;;;;;;;;5014349;28;20376;-88
2021/09/14 07:04:08;;;;;;;;;;;;;;;;;;5014255;28;19944;-88
2021/09/14 07:06:34;;;;;;;;;;;;;;;;;;4997043;28;20039;-87
2021/09/14 07:08:59;;;;;;;;;;;;;;;;;;4997309;28;19917;-87
2021/09/14 07:11:25;;;;;;;;;;;;;;;;;;5015228;28;19925;-87
2021/09/14 07:13:52;;;;;;;;;;;;;;;;;;4997578;28;20389;-89
2021/09/14 07:16:20;;;;;;;;;;;;;;;;;;5013091;28;20016;-91
2021/09/14 07:18:46;;;;;;;;;;;;;;;;;;4992962;28;20333;-89
2021/09/14 07:21:12;;;;;;;;;;;;;;;;;;4994596;28;20004;-91
2021/09/14 07:23:37;;;;;;;;;;;;;;;;;;4995327;28;19953;-90
2021/09/14 07:26:03;;;;;;;;;;;;;;;;;;4993710;28;20008;-90
2021/09/14 07:28:28;;;;;;;;;;;;;;;;;;4995243;28;19917;-91
2021/09/14 07:30:54;;;;;;;;;;;;;;;;;;4995009;28;19968;-90
2021/09/14 07:33:19;;;;;;;;;;;;;;;;;;4996160;28;19918;-89
2021/09/14 07:35:45;;;;;;;;;;;;;;;;;;4993196;28;19922;-89
2021/09/14 07:38:11;;;;;;;;;;;;;;;;;;4994937;28;19965;-90
2021/09/14 07:40:36;;;;;;;;;;;;;;;;;;4994860;28;19925;-89
2021/09/14 07:43:03;;;;;;;;;;;;;;;;;;4994796;28;20290;-88
2021/09/14 07:45:28;;;;;;;;;;;;;;;;;;4993629;28;19984;-89
2021/09/14 07:47:54;;;;;;;;;;;;;;;;;;4994085;28;20397;-90
2021/09/14 07:50:21;;;;;;;;;;;;;;;;;;4994015;28;19929;-88
2021/09/14 07:52:47;;;;;;;;;;;;;;;;;;4994129;28;19917;-88
2021/09/14 07:55:12;;;;;;;;;;;;;;;;;;4993761;28;19918;-84
2021/09/14 07:57:37;;;;;;;;;;;;;;;;;;4992449;28;19921;-87
2021/09/14 08:00:03;;;;;;;;;;;;;;;;;;4990776;28;19922;-86
2021/09/14 08:02:28;;;;;;;;;;;;;;;;;;4994164;28;19917;-86
2021/09/14 08:04:54;;;;;;;;;;;;;;;;;;4994373;28;19922;-85
2021/09/14 08:07:19;;;;;;;;;;;;;;;;;;4994476;28;19914;-87
2021/09/14 08:09:45;;;;;;;;;;;;;;;;;;4994574;28;19918;-88
2021/09/14 08:12:10;;;;;;;;;;;;;;;;;;4994293;28;20370;-89
2021/09/14 08:14:35;;;;;;;;;;;;;;;;;;4994186;28;19921;-89
2021/09/14 08:17:01;;;;;;;;;;;;;;;;;;4994005;28;19918;-88
2021/09/14 08:19:26;;;;;;;;;;;;;;;;;;4993543;28;19918;-91
2021/09/14 08:21:53;;;;;;;;;;;;;;;;;;4976642;28;19922;-88
2021/09/14 08:24:19;;;;;;;;;;;;;;;;;;4994230;28;19918;-89
2021/09/14 08:26:44;;;;;;;;;;;;;;;;;;4993873;28;19972;-89
2021/09/14 08:29:10;;;;;;;;;;;;;;;;;;4993852;28;19917;-89
2021/09/14 08:31:36;;;;;;;;;;;;;;;;;;4976809;28;19992;-88
2021/09/14 08:34:01;;;;;;;;;;;;;;;;;;4993596;28;19918;-86
2021/09/14 08:36:27;;;;;;;;;;;;;;;;;;4986278;28;20036;-90
2021/09/14 08:38:52;;;;;;;;;;;;;;;;;;4998356;28;19921;-87
2021/09/14 08:41:18;;;;;;;;;;;;;;;;;;5013020;28;19924;-87
2021/09/14 08:43:45;;;;;;;;;;;;;;;;;;5013776;28;20445;-88
2021/09/14 08:46:11;;;;;;;;;;;;;;;;;;4993857;28;19917;-91
2021/09/14 08:48:37;;;;;;;;;;;;;;;;;;4993936;28;19918;-86
2021/09/14 08:51:06;;;;;;;;;;;;;;;;;;4993855;28;19922;-89
2021/09/14 08:53:35;;;;;;;;;;;;;;;;;;4976407;28;20432;-88
2021/09/14 08:56:01;;;;;;;;;;;;;;;;;;4993791;28;20393;-87
2021/09/14 08:58:27;;;;;;;;;;;;;;;;;;4993884;28;20425;-91
2021/09/14 09:00:52;;;;;;;;;;;;;;;;;;4993443;28;19925;-87
2021/09/14 09:03:27;;;;;;;;;;;;;;;;;;4976628;28;19917;-89
2021/09/14 09:05:53;;;;;;;;;;;;;;;;;;4976416;28;20431;-89
2021/09/14 09:08:20;;;;;;;;;;;;;;;;;;4993871;28;19918;-89
2021/09/14 09:10:59;;;;;;;;;;;;;;;;;;4993637;28;19918;-89
2021/09/14 09:13:25;;;;;;;;;;;;;;;;;;4975739;28;19932;-88
2021/09/14 09:15:51;;;;;;;;;;;;;;;;;;4979223;28;19926;-89
2021/09/14 09:18:16;;;;;;;;;;;;;;;;;;4982021;28;20353;-87
2021/09/14 09:20:42;;;;;;;;;;;;;;;;;;4995120;28;19921;-89
2021/09/14 09:23:12;;;;;;;;;;;;;;;;;;5013519;28;20480;-88
2021/09/14 09:25:38;;;;;;;;;;;;;;;;;;4995139;28;20008;-87
2021/09/14 09:28:04;;;;;;;;;;;;;;;;;;5018830;28;19952;-87
2021/09/14 09:30:38;;;;;;;;;;;;;;;;;;5018822;28;19918;-88
2021/09/14 09:33:04;;;;;;;;;;;;;;;;;;5013724;28;19921;-91
2021/09/14 09:35:32;;;;;;;;;;;;;;;;;;5012808;28;20413;-90
2021/09/14 09:37:58;;;;;;;;;;;;;;;;;;4993703;28;19940;-82
2021/09/14 09:40:32;;;;;;;;;;;;;;;;;;4992016;28;19973;-83
2021/09/14 09:43:00;;;;;;;;;;;;;;;;;;5000597;28;19917;-87
2021/09/14 09:45:26;;;;;;;;;;;;;;;;;;5016059;28;19971;-85
2021/09/14 09:47:51;;;;;;;;;;;;;;;;;;5015779;28;19944;-85
2021/09/14 09:50:17;;;;;;;;;;;;;;;;;;5015475;28;19921;-86
2021/09/14 09:52:45;;;;;;;;;;;;;;;;;;5010623;28;19929;-85
2021/09/14 09:55:11;;;;;;;;;;;;;;;;;;4989619;28;19918;-85
2021/09/14 09:57:37;;;;;;;;;;;;;;;;;;5005624;28;19944;-85
2021/09/14 10:00:08;;;;;;;;;;;;;;;;;;4997492;28;20277;-85
2021/09/14 10:02:34;;;;;;;;;;;;;;;;;;5014904;28;19925;-88
2021/09/14 10:05:00;;;;;;;;;;;;;;;;;;5014650;28;19928;-84
2021/09/14 10:07:30;;;;;;;;;;;;;;;;;;5015287;28;19953;-84
2021/09/14 10:09:57;;;;;;;;;;;;;;;;;;4998756;28;20369;-84
2021/09/14 10:12:23;;;;;;;;;;;;;;;;;;5015405;28;19921;-83
2021/09/14 10:15:18;;;;;;;;;;;;;;;;;;5015149;28;19922;-86
2021/09/14 10:17:48;;;;;;;;;;;;;;;;;;4990653;28;19921;-84
2021/09/14 10:20:14;;;;;;;;;;;;;;;;;;5008439;28;21440;-83
2021/09/14 10:22:40;;;;;;;;;;;;;;;;;;5012027;28;19921;-83
2021/09/14 10:25:07;;;;;;;;;;;;;;;;;;5013286;28;19917;-85
2021/09/14 10:27:39;;;;;;;;;;;;;;;;;;5015940;28;20312;-85
2021/09/14 10:30:06;;;;;;;;;;;;;;;;;;4987898;28;19928;-84
2021/09/14 10:32:43;;;;;;;;;;;;;;;;;;4976161;28;19929;-84
2021/09/14 10:35:09;;;;;;;;;;;;;;;;;;4999657;28;19922;-83
2021/09/14 10:37:36;;;;;;;;;;;;;;;;;;4979132;28;20415;-83
2021/09/14 10:40:09;;;;;;;;;;;;;;;;;;4996665;28;19918;-84
2021/09/14 10:42:46;;;;;;;;;;;;;;;;;;4996604;28;19917;-84
2021/09/14 10:45:13;;;;;;;;;;;;;;;;;;5007026;28;19921;-83
2021/09/14 10:47:40;;;;;;;;;;;;;;;;;;5013285;28;19917;-84
2021/09/14 10:50:06;;;;;;;;;;;;;;;;;;5013189;28;20393;-85
2021/09/14 10:52:31;;;;;;;;;;;;;;;;;;4994601;28;19922;-84
2021/09/14 10:54:57;;;;;;;;;;;;;;;;;;4992468;28;19924;-87
2021/09/14 10:57:31;;;;;;;;;;;;;;;;;;4993552;28;19971;-87
2021/09/14 10:59:56;;;;;;;;;;;;;;;;;;4993806;28;19917;-87
2021/09/14 11:02:25;;;;;;;;;;;;;;;;;;4994948;28;19987;-85
2021/09/14 11:04:51;;;;;;;;;;;;;;;;;;4995363;28;19922;-86
2021/09/14 11:07:20;;;;;;;;;;;;;;;;;;4994053;28;20266;-86
2021/09/14 11:09:51;;;;;;;;;;;;;;;;;;4990783;28;19984;-85
2021/09/14 11:12:18;;;;;;;;;;;;;;;;;;5012357;28;19925;-90
2021/09/14 11:14:43;;;;;;;;;;;;;;;;;;5011245;28;20021;-90
2021/09/14 11:17:09;;;;;;;;;;;;;;;;;;5013799;28;20008;-89
2021/09/14 11:19:34;;;;;;;;;;;;;;;;;;5013879;28;19971;-89
2021/09/14 11:21:59;;;;;;;;;;;;;;;;;;5014037;28;19918;-84
2021/09/14 11:24:25;;;;;;;;;;;;;;;;;;5015353;28;20292;-87
2021/09/14 11:26:51;;;;;;;;;;;;;;;;;;5014668;28;19917;-84
2021/09/14 11:29:17;;;;;;;;;;;;;;;;;;5014945;28;20012;-85
2021/09/14 11:31:43;;;;;;;;;;;;;;;;;;4997641;28;19953;-91
2021/09/14 11:34:09;;;;;;;;;;;;;;;;;;5015702;28;19917;-84
2021/09/14 11:36:35;;;;;;;;;;;;;;;;;;5014938;28;19985;-87
2021/09/14 11:39:05;;;;;;;;;;;;;;;;;;5005431;28;19940;-90
2021/09/14 11:41:31;;;;;;;;;;;;;;;;;;4998125;28;19917;-89
2021/09/14 11:43:57;;;;;;;;;;;;;;;;;;5014276;28;19968;-88
2021/09/14 11:46:24;;;;;;;;;;;;;;;;;;5013875;28;19929;-89
2021/09/14 11:48:58;;;;;;;;;;;;;;;;;;5013547;28;19921;-88
2021/09/14 11:51:23;;;;;;;;;;;;;;;;;;5014969;28;19928;-86
2021/09/14 11:53:51;;;;;;;;;;;;;;;;;;5014409;28;20285;-87
2021/09/14 11:56:17;;;;;;;;;;;;;;;;;;5012934;28;20016;-86
2021/09/14 11:58:49;;;;;;;;;;;;;;;;;;5014457;28;19978;-91
2021/09/14 12:01:16;;;;;;;;;;;;;;;;;;5014211;28;19917;-82
2021/09/14 12:03:46;;;;;;;;;;;;;;;;;;5013355;28;19921;-86
2021/09/14 12:06:13;;;;;;;;;;;;;;;;;;5014210;28;20285;-88
2021/09/14 12:08:40;;;;;;;;;;;;;;;;;;5013628;28;20019;-87
2021/09/14 12:11:05;;;;;;;;;;;;;;;;;;4976143;28;19967;-87
2021/09/14 12:13:37;;;;;;;;;;;;;;;;;;5004324;28;19921;-86
2021/09/14 12:16:09;;;;;;;;;;;;;;;;;;5013702;28;19921;-88
2021/09/14 12:18:34;;;;;;;;;;;;;;;;;;5013440;28;19924;-89
2021/09/14 12:21:00;;;;;;;;;;;;;;;;;;5013679;28;19925;-88
2021/09/14 12:23:27;;;;;;;;;;;;;;;;;;5012561;28;20203;-89
2021/09/14 12:25:53;;;;;;;;;;;;;;;;;;5013616;28;19985;-89
2021/09/14 12:28:18;;;;;;;;;;;;;;;;;;5013714;28;19957;-89
2021/09/14 12:30:44;;;;;;;;;;;;;;;;;;4996559;28;19917;-89
2021/09/14 12:33:09;;;;;;;;;;;;;;;;;;5014358;28;20419;-89
2021/09/14 12:35:35;;;;;;;;;;;;;;;;;;5013828;28;20381;-89
2021/09/14 12:38:00;;;;;;;;;;;;;;;;;;5013724;28;20301;-90
2021/09/14 12:40:26;;;;;;;;;;;;;;;;;;5014115;28;19917;-89
2021/09/14 12:42:51;;;;;;;;;;;;;;;;;;5001556;28;20346;-89
2021/09/14 12:45:17;;;;;;;;;;;;;;;;;;4991926;28;19944;-89
2021/09/14 12:47:42;;;;;;;;;;;;;;;;;;5013355;28;20369;-89
2021/09/14 12:50:08;;;;;;;;;;;;;;;;;;4996123;28;19963;-89
2021/09/14 12:52:34;;;;;;;;;;;;;;;;;;4996305;28;19918;-89
2021/09/14 12:54:59;;;;;;;;;;;;;;;;;;5013753;28;19964;-88
2021/09/14 12:57:25;;;;;;;;;;;;;;;;;;5013424;28;19924;-89
2021/09/14 12:59:50;;;;;;;;;;;;;;;;;;5013733;28;19924;-89
2021/09/14 13:02:16;;;;;;;;;;;;;;;;;;5013718;28;19924;-88
2021/09/14 13:04:41;;;;;;;;;;;;;;;;;;4995946;28;19957;-89
2021/09/14 13:07:07;;;;;;;;;;;;;;;;;;5013386;28;19920;-89
2021/09/14 13:09:32;;;;;;;;;;;;;;;;;;5013511;28;19968;-89
2021/09/14 13:11:58;;;;;;;;;;;;;;;;;;5013807;28;19960;-88
2021/09/14 13:17:09;;;;;;;;;;;;;;;;;;4998669;28;19972;-88
2021/09/14 13:19:35;;;;;;;;;;;;;;;;;;5015989;28;19964;-89
2021/09/14 13:22:01;;;;;;;;;;;;;;;;;;4999794;28;19917;-89
2021/09/14 13:24:26;;;;;;;;;;;;;;;;;;4999654;28;19922;-88
2021/09/14 13:26:51;;;;;;;;;;;;;;;;;;5016740;28;20004;-88
2021/09/14 13:29:17;;;;;;;;;;;;;;;;;;5017041;28;19925;-88
2021/09/14 13:31:42;;;;;;;;;;;;;;;;;;5018400;28;20033;-88
2021/09/14 13:34:08;;;;;;;;;;;;;;;;;;5002876;28;20425;-88
2021/09/14 13:36:33;;;;;;;;;;;;;;;;;;5018037;28;20496;-88
2021/09/14 13:38:59;;;;;;;;;;;;;;;;;;5017636;28;19917;-88
2021/09/14 13:41:31;;;;;;;;;;;;;;;;;;4999694;28;20297;-88
2021/09/14 13:46:10;;;;;;;;;;;;;;;;;;4999622;28;19917;-88
2021/09/14 13:46:45;;;;;;;;;;;;;;;;;;5016731;28;19918;-89
2021/09/14 13:49:10;;;;;;;;;;;;;;;;;;5016779;28;19917;-89
2021/09/14 13:51:36;;;;;;;;;;;;;;;;;;5001854;28;19924;-88
2021/09/14 13:54:01;;;;;;;;;;;;;;;;;;5016865;28;19924;-89
2021/09/14 13:56:29;;;;;;;;;;;;;;;;;;5016369;28;19922;-88
2021/09/14 13:58:54;;;;;;;;;;;;;;;;;;5016791;28;19914;-88
2021/09/14 14:01:20;;;;;;;;;;;;;;;;;;4998665;28;19933;-88
2021/09/14 14:03:46;;;;;;;;;;;;;;;;;;4998902;28;19917;-88
2021/09/14 14:06:12;;;;;;;;;;;;;;;;;;5016299;28;20004;-89
2021/09/14 14:08:38;;;;;;;;;;;;;;;;;;5016099;28;19917;-89
2021/09/14 14:11:04;;;;;;;;;;;;;;;;;;5016437;28;19972;-89
2021/09/14 14:13:29;;;;;;;;;;;;;;;;;;5016458;28;19914;-88
2021/09/14 14:15:55;;;;;;;;;;;;;;;;;;5016353;28;20270;-88
2021/09/14 14:18:20;;;;;;;;;;;;;;;;;;5016316;28;19914;-87
2021/09/14 14:20:45;;;;;;;;;;;;;;;;;;4998887;28;19924;-88
2021/09/14 14:23:11;;;;;;;;;;;;;;;;;;4995736;28;20433;-88
2021/09/14 14:25:37;;;;;;;;;;;;;;;;;;4978762;28;19938;-89
2021/09/14 14:28:02;;;;;;;;;;;;;;;;;;4995658;28;19925;-88
2021/09/14 14:30:28;;;;;;;;;;;;;;;;;;4979274;28;19918;-83
2021/09/14 14:32:53;;;;;;;;;;;;;;;;;;4997081;28;19990;-88
2021/09/14 14:35:21;;;;;;;;;;;;;;;;;;4996164;28;19997;-87
2021/09/14 14:37:47;;;;;;;;;;;;;;;;;;4996197;28;20012;-87
2021/09/14 14:40:13;;;;;;;;;;;;;;;;;;4996277;28;20408;-87
2021/09/14 14:42:39;;;;;;;;;;;;;;;;;;4996515;28;19917;-84
2021/09/14 14:45:05;;;;;;;;;;;;;;;;;;4997162;28;19921;-89
2021/09/14 14:47:30;;;;;;;;;;;;;;;;;;4980875;28;19941;-87
2021/09/14 14:49:56;;;;;;;;;;;;;;;;;;4996177;28;19918;-87
2021/09/14 14:52:21;;;;;;;;;;;;;;;;;;4996283;28;19921;-84
2021/09/14 14:54:46;;;;;;;;;;;;;;;;;;5003011;28;19963;-85
2021/09/14 14:57:12;;;;;;;;;;;;;;;;;;5009211;28;19957;-84
2021/09/14 14:59:37;;;;;;;;;;;;;;;;;;4978906;28;19964;-83
2021/09/14 15:02:03;;;;;;;;;;;;;;;;;;4996026;28;19957;-89
2021/09/14 15:04:28;;;;;;;;;;;;;;;;;;4995882;28;19918;-85
2021/09/14 15:06:54;;;;;;;;;;;;;;;;;;4995649;28;20429;-86
2021/09/14 15:09:20;;;;;;;;;;;;;;;;;;4996126;28;20004;-84
2021/09/14 15:11:47;;;;;;;;;;;;;;;;;;4996273;28;19972;-88
2021/09/14 15:14:12;;;;;;;;;;;;;;;;;;4995841;28;20366;-90
2021/09/14 15:16:38;;;;;;;;;;;;;;;;;;4995247;28;19925;-86
2021/09/14 15:19:04;;;;;;;;;;;;;;;;;;4995641;28;19926;-86
2021/09/14 15:21:29;;;;;;;;;;;;;;;;;;4995505;28;19918;-84
2021/09/14 15:23:55;;;;;;;;;;;;;;;;;;4995870;28;20008;-86
2021/09/14 15:26:20;;;;;;;;;;;;;;;;;;4995214;28;19920;-86
2021/09/14 15:28:46;;;;;;;;;;;;;;;;;;4978112;28;19925;-85
2021/09/14 15:31:11;;;;;;;;;;;;;;;;;;5009481;28;19964;-87
2021/09/14 15:33:37;;;;;;;;;;;;;;;;;;5014815;28;19918;-84
2021/09/14 15:36:02;;;;;;;;;;;;;;;;;;5014692;28;20008;-84
2021/09/14 15:38:29;;;;;;;;;;;;;;;;;;5013675;28;20332;-84
2021/09/14 15:40:59;;;;;;;;;;;;;;;;;;5014843;28;19964;-84
2021/09/14 15:43:25;;;;;;;;;;;;;;;;;;4997021;28;19963;-84
2021/09/14 15:45:51;;;;;;;;;;;;;;;;;;4996824;28;19925;-85
2021/09/14 15:48:17;;;;;;;;;;;;;;;;;;5014106;28;20333;-84
2021/09/14 15:50:43;;;;;;;;;;;;;;;;;;4997038;28;20370;-85
2021/09/14 15:53:09;;;;;;;;;;;;;;;;;;5014669;28;19917;-85
2021/09/14 15:55:35;;;;;;;;;;;;;;;;;;5014443;28;19979;-89
2021/09/14 15:58:00;;;;;;;;;;;;;;;;;;5014318;28;19925;-85
2021/09/14 16:00:26;;;;;;;;;;;;;;;;;;5000981;28;19980;-86
2021/09/14 16:02:52;;;;;;;;;;;;;;;;;;4997969;28;19918;-85
2021/09/14 16:05:17;;;;;;;;;;;;;;;;;;5014151;28;19943;-85
2021/09/14 16:07:43;;;;;;;;;;;;;;;;;;5013649;28;19922;-87
2021/09/14 16:10:09;;;;;;;;;;;;;;;;;;5014062;28;19917;-82
2021/09/14 16:12:34;;;;;;;;;;;;;;;;;;5014282;28;19988;-88
2021/09/14 16:15:00;;;;;;;;;;;;;;;;;;5014351;28;20012;-87
2021/09/14 16:17:25;;;;;;;;;;;;;;;;;;5014264;28;20324;-87
2021/09/14 16:19:50;;;;;;;;;;;;;;;;;;5014336;28;20285;-83
2021/09/14 16:22:16;;;;;;;;;;;;;;;;;;5014268;28;20274;-85
2021/09/14 16:24:41;;;;;;;;;;;;;;;;;;5017419;28;19917;-81
2021/09/14 16:27:07;;;;;;;;;;;;;;;;;;4996482;28;19963;-82
2021/09/14 16:29:33;;;;;;;;;;;;;;;;;;4996653;28;20126;-82
2021/09/14 16:31:58;;;;;;;;;;;;;;;;;;5014150;28;19941;-83
2021/09/14 16:34:24;;;;;;;;;;;;;;;;;;5001556;28;19933;-83
2021/09/14 16:36:52;;;;;;;;;;;;;;;;;;4995671;28;20369;-83
2021/09/14 16:39:18;;;;;;;;;;;;;;;;;;5014246;28;20012;-88
2021/09/14 16:41:45;;;;;;;;;;;;;;;;;;5013835;28;20012;-87
2021/09/14 16:44:11;;;;;;;;;;;;;;;;;;5014170;28;19968;-81
2021/09/14 16:46:36;;;;;;;;;;;;;;;;;;5013482;28;19968;-82
2021/09/14 16:49:02;;;;;;;;;;;;;;;;;;5013631;28;20018;-82
2021/09/14 16:51:27;;;;;;;;;;;;;;;;;;5000430;28;19917;-83
2021/09/14 16:53:53;;;;;;;;;;;;;;;;;;5018032;28;19928;-82
2021/09/14 16:56:19;;;;;;;;;;;;;;;;;;5017658;28;19940;-84
2021/09/14 16:58:45;;;;;;;;;;;;;;;;;;5017450;28;19973;-82
2021/09/14 17:01:10;;;;;;;;;;;;;;;;;;5017179;28;19961;-84
2021/09/14 17:03:37;;;;;;;;;;;;;;;;;;5017594;28;20019;-83
2021/09/14 17:06:03;;;;;;;;;;;;;;;;;;4997437;28;20619;-84
2021/09/14 17:08:29;;;;;;;;;;;;;;;;;;4997007;28;19960;-87
2021/09/14 17:10:55;;;;;;;;;;;;;;;;;;5007934;28;20008;-88
2021/09/14 17:13:20;;;;;;;;;;;;;;;;;;5017672;28;20360;-86
2021/09/14 17:15:46;;;;;;;;;;;;;;;;;;5017126;28;19922;-88
2021/09/14 17:18:11;;;;;;;;;;;;;;;;;;5017085;28;19980;-85
2021/09/14 17:20:37;;;;;;;;;;;;;;;;;;5017280;28;19918;-83
2021/09/14 17:23:02;;;;;;;;;;;;;;;;;;5000022;28;19918;-84
2021/09/14 17:25:29;;;;;;;;;;;;;;;;;;5017133;28;20388;-84
2021/09/14 17:27:55;;;;;;;;;;;;;;;;;;5016670;28;19918;-84
2021/09/14 17:30:20;;;;;;;;;;;;;;;;;;5017271;28;20289;-85
2021/09/14 17:32:46;;;;;;;;;;;;;;;;;;5018917;28;20362;-85